Time;durP1;ratioP1;P1;durP2;ratioP2;P2;SDS_P1;SDS_P2;PMS_P1;PMS_P2;Temp;Humidity;BMP_temperature;BMP_pressure;BME280_temperature;BME280_humidity;BME280_pressure;Samples;Min_cycle;Max_cycle;Signal;HPM_P1;HPM_P2
2023/12/04 00:00:09;;;;;;;25.20;10.23;;;-7.30;99.90;;;;;;4951545;28;20215;-83
2023/12/04 00:02:39;;;;;;;22.73;9.70;;;-7.30;99.90;;;;;;4954441;29;20188;-84
2023/12/04 00:05:08;;;;;;;20.40;9.43;;;-7.40;99.90;;;;;;4954557;29;20267;-84
2023/12/04 00:07:35;;;;;;;22.02;9.63;;;-7.40;99.90;;;;;;4954047;29;20192;-83
2023/12/04 00:10:03;;;;;;;23.80;10.60;;;-7.40;99.90;;;;;;4952653;29;20615;-84
2023/12/04 00:12:30;;;;;;;24.67;9.73;;;-7.40;99.90;;;;;;4936929;29;20806;-83
2023/12/04 00:14:57;;;;;;;23.88;9.48;;;-7.40;99.90;;;;;;4953895;29;20280;-83
2023/12/04 00:17:25;;;;;;;21.98;10.00;;;-7.40;99.90;;;;;;4954578;29;20199;-83
2023/12/04 00:19:53;;;;;;;21.40;10.05;;;-7.40;99.90;;;;;;4953633;29;20235;-84
2023/12/04 00:22:20;;;;;;;28.17;9.68;;;-7.40;99.90;;;;;;4953859;29;20192;-83
2023/12/04 00:24:48;;;;;;;23.45;9.30;;;-7.40;99.90;;;;;;4953993;29;20212;-83
2023/12/04 00:27:15;;;;;;;26.38;10.55;;;-7.40;99.90;;;;;;4952492;29;20193;-83
2023/12/04 00:29:43;;;;;;;29.70;9.80;;;-7.40;99.90;;;;;;4936265;29;20185;-83
2023/12/04 00:32:10;;;;;;;24.08;9.60;;;-7.50;99.90;;;;;;4953320;29;20193;-82
2023/12/04 00:34:37;;;;;;;22.08;9.25;;;-7.60;99.90;;;;;;4953420;29;20189;-83
2023/12/04 00:37:05;;;;;;;19.17;9.05;;;-7.60;99.90;;;;;;4936036;29;20204;-83
2023/12/04 00:39:32;;;;;;;19.65;9.20;;;-7.50;99.90;;;;;;4936091;29;20220;-83
2023/12/04 00:42:00;;;;;;;20.55;8.35;;;-7.50;99.90;;;;;;4953605;29;20581;-82
2023/12/04 00:44:27;;;;;;;22.15;9.25;;;-7.60;99.90;;;;;;4952083;29;20267;-83
2023/12/04 00:46:55;;;;;;;23.85;9.68;;;-7.60;99.90;;;;;;4953431;29;20216;-83
2023/12/04 00:49:22;;;;;;;19.63;8.38;;;-7.50;99.90;;;;;;4953508;29;20260;-82
2023/12/04 00:51:50;;;;;;;20.52;8.70;;;-7.50;99.90;;;;;;4952876;29;20303;-82
2023/12/04 00:54:17;;;;;;;21.60;8.98;;;-7.40;99.90;;;;;;4953092;29;20196;-82
2023/12/04 00:56:45;;;;;;;20.70;8.43;;;-7.40;99.90;;;;;;4952889;29;20240;-82
2023/12/04 00:59:12;;;;;;;23.95;9.73;;;-7.30;99.90;;;;;;4952845;29;20204;-84
2023/12/04 01:01:39;;;;;;;22.83;8.48;;;-7.40;99.90;;;;;;4951466;28;20220;-83
2023/12/04 01:04:07;;;;;;;23.77;8.73;;;-7.40;99.90;;;;;;4953194;29;20272;-82
2023/12/04 01:06:35;;;;;;;20.33;9.45;;;-7.40;99.90;;;;;;4951946;29;20655;-82
2023/12/04 01:09:03;;;;;;;24.15;9.75;;;-7.40;99.90;;;;;;4953303;29;20184;-83
2023/12/04 01:11:30;;;;;;;23.83;9.95;;;-7.40;99.90;;;;;;4951241;28;20726;-82
2023/12/04 01:13:57;;;;;;;22.83;8.60;;;-7.40;99.90;;;;;;4951683;29;20349;-82
2023/12/04 01:16:25;;;;;;;26.65;10.10;;;-7.30;99.90;;;;;;4935568;29;20276;-82
2023/12/04 01:18:52;;;;;;;25.60;9.00;;;-7.30;99.90;;;;;;4935589;29;20195;-83
2023/12/04 01:21:21;;;;;;;25.60;9.77;;;-7.30;99.90;;;;;;4952517;29;20188;-82
2023/12/04 01:23:49;;;;;;;22.73;8.95;;;-7.30;99.90;;;;;;4935262;29;20243;-83
2023/12/04 01:26:16;;;;;;;22.50;9.65;;;-7.30;99.90;;;;;;4952491;29;20189;-82
2023/12/04 01:28:43;;;;;;;21.75;8.43;;;-7.30;99.90;;;;;;4952330;29;20224;-83
2023/12/04 01:31:11;;;;;;;24.98;9.52;;;-7.40;99.90;;;;;;4951085;29;20682;-83
2023/12/04 01:33:38;;;;;;;24.75;9.77;;;-7.30;99.90;;;;;;4952312;29;20200;-82
2023/12/04 01:36:06;;;;;;;20.02;8.93;;;-7.30;99.90;;;;;;4950931;29;20192;-83
2023/12/04 01:38:33;;;;;;;25.30;10.55;;;-7.30;99.90;;;;;;4950993;29;20203;-83
2023/12/04 01:41:01;;;;;;;21.85;10.10;;;-7.30;99.90;;;;;;4918738;29;20229;-83
2023/12/04 01:43:28;;;;;;;22.58;9.82;;;-7.20;99.90;;;;;;4952102;29;20204;-82
2023/12/04 01:45:57;;;;;;;20.92;9.73;;;-7.30;99.90;;;;;;4934936;29;20627;-83
2023/12/04 01:48:26;;;;;;;23.25;8.90;;;-7.30;99.90;;;;;;4935043;29;20196;-82
2023/12/04 01:50:53;;;;;;;23.85;10.10;;;-7.30;99.90;;;;;;4951913;29;20235;-82
2023/12/04 01:53:21;;;;;;;30.52;9.52;;;-7.30;99.90;;;;;;4934757;29;20192;-82
2023/12/04 01:55:50;;;;;;;26.30;10.18;;;-7.30;99.90;;;;;;4934595;29;20212;-82
2023/12/04 01:58:17;;;;;;;22.17;9.15;;;-7.20;99.90;;;;;;4951841;29;20189;-82
2023/12/04 02:00:47;;;;;;;23.33;9.18;;;-7.20;99.90;;;;;;4934917;29;20205;-83
2023/12/04 02:03:15;;;;;;;22.45;9.77;;;-7.20;99.90;;;;;;4934848;29;20317;-84
2023/12/04 02:05:44;;;;;;;27.10;10.65;;;-7.30;99.90;;;;;;4934779;29;20201;-83
2023/12/04 02:08:12;;;;;;;24.42;9.80;;;-7.20;99.90;;;;;;4918514;29;20196;-83
2023/12/04 02:10:39;;;;;;;22.20;9.38;;;-7.20;99.90;;;;;;4934458;29;20201;-82
2023/12/04 02:13:07;;;;;;;23.23;9.05;;;-7.20;99.90;;;;;;4934704;29;20710;-83
2023/12/04 02:15:34;;;;;;;23.52;9.60;;;-7.20;99.90;;;;;;4950516;29;20644;-83
2023/12/04 02:18:05;;;;;;;25.88;8.93;;;-7.20;99.90;;;;;;4951258;29;20243;-83
2023/12/04 02:20:34;;;;;;;24.83;9.63;;;-7.20;99.90;;;;;;4949975;29;20197;-83
2023/12/04 02:23:02;;;;;;;24.55;9.77;;;-7.20;99.90;;;;;;4965253;28;20730;-82
2023/12/04 02:25:31;;;;;;;23.88;9.40;;;-7.20;99.90;;;;;;4951349;29;20181;-82
2023/12/04 02:28:10;;;;;;;23.45;9.90;;;-7.20;99.90;;;;;;4950197;29;20326;-83
2023/12/04 02:30:40;;;;;;;23.20;9.77;;;-7.20;99.90;;;;;;4950275;29;20275;-82
2023/12/04 02:33:10;;;;;;;24.73;10.57;;;-7.20;99.90;;;;;;4951626;29;20671;-82
2023/12/04 02:35:40;;;;;;;21.25;9.40;;;-7.20;99.90;;;;;;4950175;29;20201;-83
2023/12/04 02:38:09;;;;;;;23.58;10.60;;;-7.20;99.90;;;;;;4951263;29;20771;-82
2023/12/04 02:40:37;;;;;;;25.02;10.52;;;-7.20;99.90;;;;;;4949919;29;20208;-82
2023/12/04 02:43:04;;;;;;;23.40;9.55;;;-7.20;99.90;;;;;;4951568;29;20666;-83
2023/12/04 02:45:32;;;;;;;27.30;11.05;;;-7.20;99.90;;;;;;4951327;29;20189;-83
2023/12/04 02:48:00;;;;;;;25.67;11.35;;;-7.20;99.90;;;;;;4965764;28;20192;-82
2023/12/04 02:50:28;;;;;;;28.80;10.15;;;-7.20;99.90;;;;;;4951264;29;20228;-83
2023/12/04 02:52:56;;;;;;;28.10;10.40;;;-7.20;99.90;;;;;;4951209;29;20247;-82
2023/12/04 02:55:24;;;;;;;21.08;9.60;;;-7.20;99.90;;;;;;4950448;29;20216;-82
2023/12/04 02:57:51;;;;;;;27.10;11.25;;;-7.20;99.90;;;;;;4950722;29;20690;-83
2023/12/04 03:00:19;;;;;;;24.33;10.15;;;-7.20;99.90;;;;;;4933808;29;20227;-82
2023/12/04 03:02:46;;;;;;;21.27;9.45;;;-7.20;99.90;;;;;;4951124;29;20208;-83
2023/12/04 03:05:13;;;;;;;27.98;10.48;;;-7.20;99.90;;;;;;4950764;29;20193;-82
2023/12/04 03:07:41;;;;;;;24.50;10.20;;;-7.20;99.90;;;;;;4933829;29;20192;-82
2023/12/04 03:10:08;;;;;;;26.42;8.88;;;-7.20;99.90;;;;;;4950880;29;20192;-83
2023/12/04 03:12:36;;;;;;;26.45;10.40;;;-7.20;99.90;;;;;;4949817;29;20192;-82
2023/12/04 03:15:05;;;;;;;25.45;9.45;;;-7.10;99.90;;;;;;4950978;29;20214;-82
2023/12/04 03:17:32;;;;;;;21.40;9.05;;;-7.10;99.90;;;;;;4933670;29;20271;-82
2023/12/04 03:19:59;;;;;;;27.38;10.63;;;-7.10;99.90;;;;;;4965229;28;20288;-82
2023/12/04 03:22:27;;;;;;;21.52;9.65;;;-7.20;99.90;;;;;;4965304;28;20738;-82
2023/12/04 03:24:54;;;;;;;24.92;10.13;;;-7.10;99.90;;;;;;4950900;29;20192;-83
2023/12/04 03:27:21;;;;;;;27.05;9.63;;;-7.20;99.90;;;;;;4949696;29;20197;-83
2023/12/04 03:29:49;;;;;;;26.60;10.57;;;-7.30;99.90;;;;;;4951053;29;20208;-82
2023/12/04 03:32:16;;;;;;;27.80;10.77;;;-7.20;99.90;;;;;;4951008;29;20201;-82
2023/12/04 03:34:44;;;;;;;23.75;10.18;;;-7.20;99.90;;;;;;4952862;28;20185;-82
2023/12/04 03:37:11;;;;;;;28.08;9.52;;;-7.10;99.90;;;;;;4953014;29;20192;-83
2023/12/04 03:39:38;;;;;;;24.35;9.40;;;-7.20;99.90;;;;;;4953100;29;20667;-83
2023/12/04 03:42:06;;;;;;;25.67;10.27;;;-7.20;99.90;;;;;;4954203;29;20837;-82
2023/12/04 03:44:33;;;;;;;23.58;9.60;;;-7.20;99.90;;;;;;4969045;28;20248;-83
2023/12/04 03:47:00;;;;;;;24.00;8.93;;;-7.20;99.90;;;;;;4954074;29;20648;-82
2023/12/04 03:49:28;;;;;;;27.95;10.07;;;-7.20;99.90;;;;;;4954131;29;20244;-83
2023/12/04 03:51:56;;;;;;;21.52;8.63;;;-7.20;99.90;;;;;;4953984;29;20756;-83
2023/12/04 03:54:23;;;;;;;25.05;9.57;;;-7.20;99.90;;;;;;4954258;29;20291;-82
2023/12/04 03:56:51;;;;;;;24.10;10.32;;;-7.10;99.90;;;;;;4953959;29;20197;-83
2023/12/04 03:59:18;;;;;;;23.17;10.60;;;-7.10;99.90;;;;;;4954013;29;20188;-82
2023/12/04 04:01:46;;;;;;;25.90;9.55;;;-7.10;99.90;;;;;;4953949;29;20211;-83
2023/12/04 04:04:13;;;;;;;29.50;11.25;;;-7.10;99.90;;;;;;4954096;29;20195;-83
2023/12/04 04:06:41;;;;;;;26.13;10.98;;;-7.10;99.90;;;;;;4954408;29;20193;-84
2023/12/04 04:09:08;;;;;;;23.15;9.55;;;-7.20;99.90;;;;;;4954105;29;20184;-82
2023/12/04 04:11:36;;;;;;;26.30;10.77;;;-7.20;99.90;;;;;;4952952;29;20679;-83
2023/12/04 04:14:03;;;;;;;26.90;10.82;;;-7.20;99.90;;;;;;4936645;29;20197;-84
2023/12/04 04:16:30;;;;;;;28.38;12.63;;;-7.20;99.90;;;;;;4944222;29;20201;-82
2023/12/04 04:18:58;;;;;;;26.92;10.50;;;-7.20;99.90;;;;;;4936385;29;20224;-84
2023/12/04 04:21:25;;;;;;;24.60;9.82;;;-7.20;99.90;;;;;;4953504;29;20312;-82
2023/12/04 04:23:53;;;;;;;23.45;9.45;;;-7.10;99.90;;;;;;4953515;29;20276;-82
2023/12/04 04:26:20;;;;;;;24.33;9.32;;;-7.20;99.90;;;;;;4953368;29;20181;-82
2023/12/04 04:28:48;;;;;;;28.08;9.98;;;-7.20;99.90;;;;;;4953556;29;20181;-83
2023/12/04 04:31:15;;;;;;;25.77;10.73;;;-7.10;99.90;;;;;;4936287;29;20197;-83
2023/12/04 04:33:43;;;;;;;24.38;9.23;;;-7.10;99.90;;;;;;4953363;29;20189;-83
2023/12/04 04:36:11;;;;;;;23.73;10.05;;;-7.20;99.90;;;;;;4951898;28;20577;-83
2023/12/04 04:38:40;;;;;;;27.20;10.35;;;-7.10;99.90;;;;;;4936007;29;20201;-83
2023/12/04 04:41:16;;;;;;;25.17;9.43;;;-7.10;99.90;;;;;;4935860;29;20228;-83
2023/12/04 04:43:43;;;;;;;26.42;9.77;;;-7.00;99.90;;;;;;4951970;28;20199;-82
2023/12/04 04:46:11;;;;;;;24.85;9.73;;;-7.00;99.90;;;;;;4952501;28;20281;-82
2023/12/04 04:48:39;;;;;;;24.17;10.07;;;-7.00;99.90;;;;;;4953012;29;20248;-83
2023/12/04 04:51:07;;;;;;;25.40;10.23;;;-7.10;99.90;;;;;;4935774;29;20285;-82
2023/12/04 04:53:34;;;;;;;28.10;9.70;;;-7.00;99.90;;;;;;4936071;29;20551;-82
2023/12/04 04:56:02;;;;;;;25.88;10.35;;;-7.10;99.90;;;;;;4952973;29;20833;-82
2023/12/04 04:58:29;;;;;;;23.08;10.07;;;-7.00;99.90;;;;;;4952859;29;20193;-83
2023/12/04 05:00:57;;;;;;;25.58;9.15;;;-7.00;99.90;;;;;;4952517;29;20288;-82
2023/12/04 05:03:24;;;;;;;25.50;10.52;;;-7.00;99.90;;;;;;4952869;29;20191;-82
2023/12/04 05:05:52;;;;;;;25.05;10.90;;;-7.00;99.90;;;;;;4935324;29;20201;-82
2023/12/04 05:08:19;;;;;;;23.33;9.63;;;-7.00;99.90;;;;;;4952935;29;20698;-82
2023/12/04 05:10:47;;;;;;;32.67;10.23;;;-7.00;99.90;;;;;;4936125;29;20955;-83
2023/12/04 05:13:14;;;;;;;27.30;10.60;;;-7.10;99.90;;;;;;4952965;29;20197;-82
2023/12/04 05:15:42;;;;;;;22.73;10.13;;;-7.00;99.90;;;;;;4935619;29;20216;-83
2023/12/04 05:18:09;;;;;;;30.27;12.85;;;-7.00;99.90;;;;;;4952477;29;20188;-82
2023/12/04 05:20:37;;;;;;;30.65;14.27;;;-7.00;99.90;;;;;;4935286;29;20711;-82
2023/12/04 05:23:05;;;;;;;27.00;11.52;;;-7.00;99.90;;;;;;4952848;29;20181;-81
2023/12/04 05:25:32;;;;;;;24.15;9.57;;;-7.00;99.90;;;;;;4952732;29;20180;-83
2023/12/04 05:28:11;;;;;;;27.75;10.88;;;-7.00;99.90;;;;;;4952520;29;20927;-83
2023/12/04 05:30:38;;;;;;;25.70;11.10;;;-7.00;99.90;;;;;;4952732;29;20275;-83
2023/12/04 05:33:06;;;;;;;24.50;10.70;;;-7.00;99.90;;;;;;4951278;28;21032;-82
2023/12/04 05:35:34;;;;;;;27.10;10.52;;;-6.90;99.90;;;;;;4935023;29;20192;-82
2023/12/04 05:38:02;;;;;;;27.25;9.55;;;-6.80;99.90;;;;;;4935819;29;20195;-83
2023/12/04 05:40:29;;;;;;;31.42;11.32;;;-6.90;99.90;;;;;;4952146;29;20223;-82
2023/12/04 05:42:57;;;;;;;24.35;9.88;;;-7.00;99.90;;;;;;4950486;29;20690;-82
2023/12/04 05:45:24;;;;;;;24.08;12.32;;;-7.10;99.90;;;;;;4934847;29;20185;-83
2023/12/04 05:47:52;;;;;;;24.80;11.68;;;-7.10;99.90;;;;;;4951918;29;20287;-83
2023/12/04 05:50:20;;;;;;;27.27;10.65;;;-7.10;99.90;;;;;;4950359;29;20238;-83
2023/12/04 05:52:47;;;;;;;24.77;10.45;;;-7.10;99.90;;;;;;4951925;29;20173;-83
2023/12/04 05:55:15;;;;;;;28.67;10.95;;;-7.10;99.90;;;;;;4934851;29;20214;-82
2023/12/04 05:57:43;;;;;;;29.90;13.80;;;-7.10;99.90;;;;;;4951240;28;20188;-84
2023/12/04 06:00:12;;;;;;;24.95;9.88;;;-7.10;99.90;;;;;;4951936;29;20212;-83
2023/12/04 06:02:42;;;;;;;29.10;10.88;;;-7.10;99.90;;;;;;4951683;29;20620;-83
2023/12/04 06:05:10;;;;;;;23.95;10.90;;;-7.10;99.90;;;;;;4951092;29;20197;-83
2023/12/04 06:07:38;;;;;;;24.90;9.88;;;-7.10;99.90;;;;;;4949429;29;20204;-82
2023/12/04 06:10:06;;;;;;;25.17;10.50;;;-7.10;99.90;;;;;;4951606;29;20259;-84
2023/12/04 06:12:34;;;;;;;30.02;14.18;;;-7.10;99.90;;;;;;4951705;29;20185;-83
2023/12/04 06:15:02;;;;;;;27.33;12.82;;;-7.10;99.90;;;;;;4934494;29;20955;-84
2023/12/04 06:17:30;;;;;;;27.52;13.95;;;-7.10;99.90;;;;;;4951672;29;20189;-82
2023/12/04 06:19:57;;;;;;;28.80;11.88;;;-7.10;99.90;;;;;;4951420;29;20188;-82
2023/12/04 06:22:26;;;;;;;27.50;9.73;;;-7.10;99.90;;;;;;4950988;29;20266;-83
2023/12/04 06:24:56;;;;;;;27.30;10.70;;;-7.10;99.90;;;;;;4947572;29;20672;-83
2023/12/04 06:27:28;;;;;;;28.95;11.18;;;-7.10;99.90;;;;;;4940954;29;20220;-83
2023/12/04 06:29:56;;;;;;;28.23;11.27;;;-7.10;99.90;;;;;;4927556;29;20248;-82
2023/12/04 06:32:24;;;;;;;29.10;11.10;;;-7.10;99.90;;;;;;4951175;29;20188;-82
2023/12/04 06:34:52;;;;;;;29.67;13.80;;;-7.10;99.90;;;;;;4933399;29;20240;-83
2023/12/04 06:37:20;;;;;;;32.35;13.38;;;-7.10;99.90;;;;;;4932183;29;20200;-83
2023/12/04 06:39:49;;;;;;;30.98;13.15;;;-7.10;99.90;;;;;;4930950;29;20196;-82
2023/12/04 06:42:16;;;;;;;25.92;12.38;;;-7.10;99.90;;;;;;4923907;29;20208;-82
2023/12/04 06:44:44;;;;;;;26.13;11.00;;;-7.20;99.90;;;;;;4933852;29;20193;-82
2023/12/04 06:47:12;;;;;;;26.23;11.63;;;-7.10;99.90;;;;;;4933926;29;20184;-82
2023/12/04 06:49:40;;;;;;;31.70;14.65;;;-7.10;99.90;;;;;;4951046;29;20185;-83
2023/12/04 06:52:08;;;;;;;30.15;14.07;;;-7.10;99.90;;;;;;4949404;29;20236;-83
2023/12/04 06:54:35;;;;;;;27.77;11.60;;;-7.10;99.90;;;;;;4933608;29;20278;-82
2023/12/04 06:57:03;;;;;;;30.02;12.25;;;-7.10;99.90;;;;;;4933536;29;20754;-82
2023/12/04 06:59:30;;;;;;;25.65;11.43;;;-7.10;99.90;;;;;;4940407;29;20203;-82
2023/12/04 07:01:58;;;;;;;30.67;13.57;;;-7.20;99.90;;;;;;4915274;29;20242;-83
2023/12/04 07:04:25;;;;;;;30.23;12.57;;;-7.20;99.90;;;;;;4932039;29;20193;-83
2023/12/04 07:06:53;;;;;;;27.55;12.23;;;-7.20;99.90;;;;;;4914625;29;20636;-83
2023/12/04 07:09:20;;;;;;;30.55;13.77;;;-7.20;99.90;;;;;;4931767;29;20223;-83
2023/12/04 07:11:48;;;;;;;29.65;12.40;;;-7.10;99.90;;;;;;4935674;29;20193;-83
2023/12/04 07:14:15;;;;;;;27.17;11.10;;;-7.10;99.90;;;;;;4935780;29;20189;-83
2023/12/04 07:16:43;;;;;;;28.60;11.73;;;-7.20;99.90;;;;;;4948901;29;20658;-82
2023/12/04 07:19:11;;;;;;;23.88;10.00;;;-7.20;99.90;;;;;;4953328;29;20656;-83
2023/12/04 07:21:38;;;;;;;27.08;10.75;;;-7.10;99.90;;;;;;4954577;29;20200;-82
2023/12/04 07:24:07;;;;;;;28.00;11.73;;;-7.10;99.90;;;;;;4954683;29;20267;-84
2023/12/04 07:26:35;;;;;;;27.92;11.93;;;-7.10;99.90;;;;;;4954834;29;20180;-83
2023/12/04 07:29:03;;;;;;;29.10;12.05;;;-7.10;99.90;;;;;;4954634;29;20209;-82
2023/12/04 07:31:31;;;;;;;27.37;11.10;;;-7.10;99.90;;;;;;4937141;29;20296;-83
2023/12/04 07:34:00;;;;;;;25.63;10.52;;;-7.10;99.90;;;;;;4921167;29;20204;-83
2023/12/04 07:36:28;;;;;;;27.80;12.07;;;-7.10;99.90;;;;;;4925982;29;20205;-82
2023/12/04 07:38:56;;;;;;;27.35;11.88;;;-7.10;99.90;;;;;;4934041;29;20197;-82
2023/12/04 07:41:24;;;;;;;27.48;12.52;;;-7.10;99.90;;;;;;4953935;29;20735;-83
2023/12/04 07:43:52;;;;;;;29.08;11.80;;;-7.10;99.90;;;;;;4952846;28;20200;-83
2023/12/04 07:46:19;;;;;;;28.02;10.80;;;-7.10;99.90;;;;;;4921249;29;20189;-83
2023/12/04 07:48:47;;;;;;;29.15;13.00;;;-7.10;99.90;;;;;;4949597;29;20189;-82
2023/12/04 07:51:15;;;;;;;34.92;12.13;;;-7.10;99.90;;;;;;4930798;29;20224;-82
2023/12/04 07:53:42;;;;;;;32.80;13.40;;;-7.10;99.90;;;;;;4936917;29;20284;-82
2023/12/04 07:56:11;;;;;;;35.55;14.95;;;-7.20;99.90;;;;;;4953989;29;20188;-83
2023/12/04 07:58:39;;;;;;;36.72;15.68;;;-7.40;99.90;;;;;;4952392;29;20200;-84
2023/12/04 08:01:07;;;;;;;37.63;15.80;;;-7.50;99.90;;;;;;4953735;29;20291;-82
2023/12/04 08:03:34;;;;;;;33.70;14.13;;;-7.30;99.90;;;;;;4953842;29;20527;-81
2023/12/04 08:06:03;;;;;;;39.30;15.93;;;-7.20;99.90;;;;;;4936479;29;20517;-84
2023/12/04 08:08:32;;;;;;;36.92;16.05;;;-7.10;99.90;;;;;;4953792;29;20239;-82
2023/12/04 08:10:59;;;;;;;38.92;17.25;;;-7.00;99.90;;;;;;4936802;29;20184;-82
2023/12/04 08:13:27;;;;;;;39.80;18.35;;;-7.00;99.90;;;;;;4954414;29;20196;-82
2023/12/04 08:15:55;;;;;;;40.70;17.25;;;-7.00;99.90;;;;;;4937005;29;20193;-83
2023/12/04 08:18:24;;;;;;;39.58;19.58;;;-6.90;99.90;;;;;;4936615;29;20216;-82
2023/12/04 08:20:52;;;;;;;41.67;18.10;;;-6.90;99.90;;;;;;4953356;28;20252;-83
2023/12/04 08:23:21;;;;;;;38.42;16.15;;;-6.80;99.90;;;;;;4953646;29;20268;-83
2023/12/04 08:25:49;;;;;;;39.78;19.23;;;-6.80;99.90;;;;;;4953512;29;20184;-82
2023/12/04 08:28:18;;;;;;;36.58;15.60;;;-6.90;99.90;;;;;;4952127;29;20216;-82
2023/12/04 08:30:45;;;;;;;38.10;15.48;;;-7.00;99.90;;;;;;4935966;29;20199;-82
2023/12/04 08:33:13;;;;;;;42.55;16.20;;;-6.90;99.90;;;;;;4952963;29;20189;-82
2023/12/04 08:35:41;;;;;;;36.45;16.02;;;-6.80;99.90;;;;;;4935355;29;20244;-81
2023/12/04 08:38:08;;;;;;;35.92;14.82;;;-7.00;99.90;;;;;;4935357;29;20197;-82
2023/12/04 08:40:36;;;;;;;38.10;15.90;;;-7.10;99.90;;;;;;4953168;29;20188;-83
2023/12/04 08:43:04;;;;;;;39.53;14.60;;;-7.00;99.90;;;;;;4952958;29;20212;-82
2023/12/04 08:45:31;;;;;;;36.30;14.77;;;-7.10;99.90;;;;;;4935352;29;20201;-81
2023/12/04 08:47:59;;;;;;;41.03;13.80;;;-7.10;99.90;;;;;;4952843;29;20663;-80
2023/12/04 08:50:27;;;;;;;33.00;12.98;;;-7.20;99.90;;;;;;4919609;29;20228;-81
2023/12/04 08:52:55;;;;;;;40.63;14.30;;;-7.20;99.90;;;;;;4952659;29;20247;-81
2023/12/04 08:55:22;;;;;;;36.63;13.18;;;-7.20;99.90;;;;;;4935541;29;20664;-81
2023/12/04 08:57:50;;;;;;;33.97;14.63;;;-7.20;99.90;;;;;;4935281;29;20858;-82
2023/12/04 09:00:18;;;;;;;39.60;14.93;;;-7.00;99.90;;;;;;4934972;29;20203;-82
2023/12/04 09:02:45;;;;;;;32.67;12.73;;;-7.00;99.90;;;;;;4919478;29;20514;-83
2023/12/04 09:05:23;;;;;;;42.13;15.80;;;-6.90;99.90;;;;;;4951674;29;20528;-81
2023/12/04 09:07:52;;;;;;;39.40;13.85;;;-6.90;99.90;;;;;;4951528;29;20216;-81
2023/12/04 09:10:22;;;;;;;39.00;15.70;;;-6.80;99.90;;;;;;4951029;29;20235;-83
2023/12/04 09:13:10;;;;;;;41.92;18.45;;;-6.70;99.90;;;;;;4951114;29;20192;-83
2023/12/04 09:15:38;;;;;;;38.17;15.57;;;-6.70;99.90;;;;;;4952225;29;20192;-84
2023/12/04 09:18:06;;;;;;;44.20;16.85;;;-6.70;99.90;;;;;;4952282;29;20196;-83
2023/12/04 09:20:34;;;;;;;37.20;16.23;;;-6.70;99.90;;;;;;4934815;29;20287;-84
2023/12/04 09:23:01;;;;;;;39.78;15.10;;;-6.70;99.90;;;;;;4952313;29;20200;-83
2023/12/04 09:25:36;;;;;;;38.30;15.15;;;-6.70;99.90;;;;;;4952289;29;20164;-84
2023/12/04 09:28:04;;;;;;;36.20;14.63;;;-6.60;99.90;;;;;;4951167;29;20659;-84
2023/12/04 09:30:31;;;;;;;28.45;11.07;;;-6.60;99.90;;;;;;4952158;29;20193;-83
2023/12/04 09:32:59;;;;;;;30.42;11.65;;;-6.80;99.90;;;;;;4934145;29;20196;-83
2023/12/04 09:35:26;;;;;;;27.17;11.60;;;-6.70;99.90;;;;;;4951947;29;20189;-83
2023/12/04 09:37:54;;;;;;;23.98;9.25;;;-6.70;99.90;;;;;;4934478;29;20196;-82
2023/12/04 09:40:21;;;;;;;23.38;8.70;;;-6.80;99.90;;;;;;4951861;29;20185;-83
2023/12/04 09:42:49;;;;;;;22.33;8.60;;;-6.80;99.90;;;;;;4951973;29;20971;-83
2023/12/04 09:45:18;;;;;;;22.38;8.90;;;-6.80;99.90;;;;;;4952009;29;20272;-83
2023/12/04 09:47:47;;;;;;;23.13;8.93;;;-6.80;99.90;;;;;;4951797;29;20291;-83
2023/12/04 09:50:20;;;;;;;23.90;8.40;;;-6.80;99.90;;;;;;4950099;29;20247;-83
2023/12/04 09:52:53;;;;;;;30.33;9.95;;;-6.90;99.90;;;;;;4934062;29;20192;-82
2023/12/04 09:55:20;;;;;;;26.65;9.75;;;-6.90;99.90;;;;;;4950276;29;20189;-83
2023/12/04 09:57:49;;;;;;;24.98;8.05;;;-6.90;99.90;;;;;;4949636;29;20220;-84
2023/12/04 10:00:17;;;;;;;18.10;7.07;;;-6.90;99.90;;;;;;4949145;29;20208;-83
2023/12/04 10:02:45;;;;;;;27.95;10.32;;;-6.90;99.90;;;;;;4948610;29;20319;-82
2023/12/04 10:05:13;;;;;;;18.90;7.68;;;-6.90;99.90;;;;;;4950133;29;20196;-83
2023/12/04 10:07:43;;;;;;;23.95;8.25;;;-6.80;99.90;;;;;;4933786;29;20279;-83
2023/12/04 10:10:14;;;;;;;26.40;8.48;;;-6.80;99.90;;;;;;4951311;29;20189;-82
2023/12/04 10:12:43;;;;;;;19.95;7.75;;;-6.80;99.90;;;;;;4933958;29;20185;-83
2023/12/04 10:15:13;;;;;;;22.48;7.97;;;-6.90;99.90;;;;;;4951061;29;20184;-83
2023/12/04 10:17:43;;;;;;;23.35;8.15;;;-6.80;99.90;;;;;;4951017;29;20198;-82
2023/12/04 10:20:17;;;;;;;21.88;7.05;;;-6.90;99.90;;;;;;4950819;29;20549;-82
2023/12/04 10:22:59;;;;;;;18.35;7.45;;;-6.90;99.90;;;;;;4950990;29;20211;-83
2023/12/04 10:25:33;;;;;;;20.38;7.35;;;-6.90;99.90;;;;;;4951162;29;20818;-82
2023/12/04 10:28:15;;;;;;;22.20;8.02;;;-6.90;99.90;;;;;;4933531;29;20189;-85
2023/12/04 10:30:46;;;;;;;23.42;7.85;;;-6.80;99.90;;;;;;4933568;29;20291;-84
2023/12/04 10:33:17;;;;;;;16.80;7.03;;;-6.70;99.90;;;;;;4950859;29;20288;-81
2023/12/04 10:35:46;;;;;;;18.75;7.38;;;-6.80;99.90;;;;;;4915046;29;20300;-82
2023/12/04 10:38:15;;;;;;;22.50;8.20;;;-6.80;99.90;;;;;;4931616;29;20196;-83
2023/12/04 10:40:43;;;;;;;18.92;6.88;;;-6.70;99.90;;;;;;4946058;29;20208;-84
2023/12/04 10:43:20;;;;;;;19.63;6.80;;;-6.70;99.90;;;;;;4914114;29;20221;-82
2023/12/04 10:45:51;;;;;;;20.50;7.00;;;-6.80;99.90;;;;;;4931427;29;20815;-83
2023/12/04 10:48:20;;;;;;;20.45;7.38;;;-6.80;99.90;;;;;;4931649;29;20165;-84
2023/12/04 10:50:50;;;;;;;23.70;8.10;;;-6.80;99.90;;;;;;4926862;29;20285;-84
2023/12/04 10:53:20;;;;;;;19.65;7.03;;;-6.70;99.90;;;;;;4912576;29;20200;-83
2023/12/04 10:55:56;;;;;;;17.45;6.85;;;-6.80;99.90;;;;;;4911887;29;20304;-84
2023/12/04 10:58:27;;;;;;;20.50;8.20;;;-6.80;99.90;;;;;;4911242;29;20296;-83
2023/12/04 11:00:56;;;;;;;22.27;8.95;;;-6.70;99.90;;;;;;4919398;29;20197;-82
2023/12/04 11:03:37;;;;;;;22.88;8.38;;;-6.80;99.90;;;;;;4931528;29;20209;-82
2023/12/04 11:06:09;;;;;;;23.00;8.55;;;-6.80;99.90;;;;;;4931587;29;20178;-82
2023/12/04 11:08:38;;;;;;;20.73;8.73;;;-6.70;99.90;;;;;;4932073;29;20181;-83
2023/12/04 11:11:12;;;;;;;23.38;8.25;;;-6.60;99.90;;;;;;4946359;29;20716;-82
2023/12/04 11:13:42;;;;;;;26.77;10.05;;;-6.70;99.90;;;;;;4932170;29;20177;-83
2023/12/04 11:16:25;;;;;;;21.95;8.73;;;-6.50;99.90;;;;;;4931367;29;20212;-83
2023/12/04 11:19:01;;;;;;;24.88;9.57;;;-6.50;99.90;;;;;;4931814;29;20649;-82
2023/12/04 11:21:33;;;;;;;19.25;8.95;;;-6.50;99.90;;;;;;4931555;29;20181;-83
2023/12/04 11:24:01;;;;;;;21.85;7.57;;;-6.50;99.90;;;;;;4931524;29;20248;-84
2023/12/04 11:26:29;;;;;;;20.45;8.57;;;-6.50;99.90;;;;;;4930336;29;20197;-82
2023/12/04 11:28:57;;;;;;;22.88;9.35;;;-6.50;99.90;;;;;;4931412;29;20189;-82
2023/12/04 11:31:25;;;;;;;30.42;11.65;;;-6.40;99.90;;;;;;4931556;29;21039;-83
2023/12/04 11:33:52;;;;;;;22.98;8.95;;;-6.40;99.90;;;;;;4929890;29;20194;-83
2023/12/04 11:36:21;;;;;;;24.25;9.85;;;-6.40;99.90;;;;;;4929800;29;20260;-82
2023/12/04 11:38:49;;;;;;;25.98;9.93;;;-6.50;99.90;;;;;;4931242;29;20545;-83
2023/12/04 11:41:22;;;;;;;23.13;8.88;;;-6.50;99.90;;;;;;4929683;29;20205;-82
2023/12/04 11:43:55;;;;;;;26.35;9.55;;;-6.40;99.90;;;;;;4920439;29;20288;-83
2023/12/04 11:46:25;;;;;;;25.33;8.60;;;-6.40;99.90;;;;;;4929815;29;20276;-83
2023/12/04 11:49:25;;;;;;;30.25;11.25;;;-6.40;99.90;;;;;;4929871;29;20206;-82
2023/12/04 11:51:53;;;;;;;25.35;10.13;;;-6.40;99.90;;;;;;4946728;29;20224;-82
2023/12/04 11:54:25;;;;;;;26.48;9.43;;;-6.50;99.90;;;;;;4949125;29;20275;-83
2023/12/04 11:57:00;;;;;;;24.48;9.45;;;-6.40;99.90;;;;;;4953932;28;20176;-82
2023/12/04 11:59:28;;;;;;;25.77;10.15;;;-6.40;99.90;;;;;;4936550;29;20192;-82
2023/12/04 12:01:58;;;;;;;24.60;9.35;;;-6.40;99.90;;;;;;4952135;29;20564;-82
2023/12/04 12:04:26;;;;;;;19.42;8.65;;;-6.40;99.90;;;;;;4950380;29;20185;-83
2023/12/04 12:06:58;;;;;;;22.17;8.93;;;-6.40;99.90;;;;;;4947967;29;20204;-82
2023/12/04 12:09:28;;;;;;;18.35;7.35;;;-6.40;99.90;;;;;;4943187;29;20194;-82
2023/12/04 12:11:55;;;;;;;28.13;10.63;;;-6.50;99.90;;;;;;4942955;29;21007;-83
2023/12/04 12:14:23;;;;;;;22.35;8.70;;;-6.40;99.90;;;;;;4928737;29;20189;-82
2023/12/04 12:16:50;;;;;;;25.75;8.55;;;-6.50;99.90;;;;;;4932415;29;20192;-82
2023/12/04 12:19:20;;;;;;;19.70;7.30;;;-6.50;99.90;;;;;;4932545;29;20189;-82
2023/12/04 12:21:49;;;;;;;22.58;9.32;;;-6.50;99.90;;;;;;4916886;29;20224;-82
2023/12/04 12:24:16;;;;;;;20.90;7.53;;;-6.40;99.90;;;;;;4933919;29;20213;-84
2023/12/04 12:26:44;;;;;;;26.00;9.10;;;-6.40;99.90;;;;;;4917013;29;20264;-84
2023/12/04 12:29:11;;;;;;;22.20;8.40;;;-6.40;99.90;;;;;;4932905;29;20186;-82
2023/12/04 12:31:39;;;;;;;25.25;11.02;;;-6.30;99.90;;;;;;4934132;29;20184;-82
2023/12/04 12:34:07;;;;;;;24.58;10.10;;;-6.40;99.90;;;;;;4950305;29;20192;-83
2023/12/04 12:36:35;;;;;;;24.17;7.35;;;-6.40;99.90;;;;;;4953319;29;20271;-83